sensor_id;sensor_type;location;lat;lon;timestamp;P1;durP1;ratioP1;P2;durP2;ratioP2
9115;SDS011;4593;53.652;10.168;2023-03-24T00:00:04;7.43;;;5.03;;
9115;SDS011;4593;53.652;10.168;2023-03-24T00:02:34;7.33;;;5.50;;
9115;SDS011;4593;53.652;10.168;2023-03-24T00:05:02;9.67;;;6.57;;
9115;SDS011;4593;53.652;10.168;2023-03-24T00:07:29;10.87;;;4.87;;
9115;SDS011;4593;53.652;10.168;2023-03-24T00:09:58;8.57;;;4.63;;
9115;SDS011;4593;53.652;10.168;2023-03-24T00:12:24;6.43;;;4.83;;
9115;SDS011;4593;53.652;10.168;2023-03-24T00:14:50;6.10;;;4.57;;
9115;SDS011;4593;53.652;10.168;2023-03-24T00:17:18;8.03;;;4.50;;
9115;SDS011;4593;53.652;10.168;2023-03-24T00:19:49;4.97;;;4.00;;
9115;SDS011;4593;53.652;10.168;2023-03-24T00:22:16;7.13;;;4.40;;
9115;SDS011;4593;53.652;10.168;2023-03-24T00:24:41;8.10;;;4.60;;
9115;SDS011;4593;53.652;10.168;2023-03-24T00:27:10;13.77;;;4.53;;
9115;SDS011;4593;53.652;10.168;2023-03-24T00:29:37;5.10;;;4.20;;
9115;SDS011;4593;53.652;10.168;2023-03-24T00:32:04;5.17;;;4.27;;
9115;SDS011;4593;53.652;10.168;2023-03-24T00:34:30;6.13;;;4.63;;
9115;SDS011;4593;53.652;10.168;2023-03-24T00:36:56;6.43;;;4.27;;
9115;SDS011;4593;53.652;10.168;2023-03-24T00:39:21;5.70;;;3.90;;
9115;SDS011;4593;53.652;10.168;2023-03-24T00:41:47;5.87;;;3.93;;
9115;SDS011;4593;53.652;10.168;2023-03-24T00:44:14;6.43;;;3.90;;
9115;SDS011;4593;53.652;10.168;2023-03-24T00:46:47;8.73;;;3.97;;
9115;SDS011;4593;53.652;10.168;2023-03-24T00:49:24;5.20;;;3.70;;
9115;SDS011;4593;53.652;10.168;2023-03-24T00:52:10;7.50;;;4.43;;
9115;SDS011;4593;53.652;10.168;2023-03-24T00:54:38;4.83;;;4.00;;
9115;SDS011;4593;53.652;10.168;2023-03-24T00:57:08;5.93;;;4.07;;
9115;SDS011;4593;53.652;10.168;2023-03-24T00:59:38;7.30;;;3.80;;
9115;SDS011;4593;53.652;10.168;2023-03-24T01:02:09;6.37;;;3.73;;
9115;SDS011;4593;53.652;10.168;2023-03-24T01:04:36;5.30;;;3.70;;
9115;SDS011;4593;53.652;10.168;2023-03-24T01:07:03;5.27;;;3.63;;
9115;SDS011;4593;53.652;10.168;2023-03-24T01:09:30;5.67;;;4.03;;
9115;SDS011;4593;53.652;10.168;2023-03-24T01:11:55;10.23;;;4.60;;
9115;SDS011;4593;53.652;10.168;2023-03-24T01:14:22;9.43;;;3.90;;
9115;SDS011;4593;53.652;10.168;2023-03-24T01:16:48;7.10;;;5.03;;
9115;SDS011;4593;53.652;10.168;2023-03-24T01:19:13;7.00;;;3.93;;
9115;SDS011;4593;53.652;10.168;2023-03-24T01:21:40;5.83;;;3.70;;
9115;SDS011;4593;53.652;10.168;2023-03-24T01:24:06;5.03;;;3.73;;
9115;SDS011;4593;53.652;10.168;2023-03-24T01:26:32;4.07;;;3.30;;
9115;SDS011;4593;53.652;10.168;2023-03-24T01:28:58;6.10;;;4.20;;
9115;SDS011;4593;53.652;10.168;2023-03-24T01:31:24;5.17;;;3.90;;
9115;SDS011;4593;53.652;10.168;2023-03-24T01:33:50;6.47;;;3.90;;
9115;SDS011;4593;53.652;10.168;2023-03-24T01:36:15;5.20;;;3.80;;
9115;SDS011;4593;53.652;10.168;2023-03-24T01:38:41;4.60;;;3.77;;
9115;SDS011;4593;53.652;10.168;2023-03-24T01:41:07;6.43;;;3.33;;
9115;SDS011;4593;53.652;10.168;2023-03-24T01:43:33;8.97;;;3.10;;
9115;SDS011;4593;53.652;10.168;2023-03-24T01:46:11;5.03;;;3.57;;
9115;SDS011;4593;53.652;10.168;2023-03-24T01:53:40;7.50;;;3.27;;
9115;SDS011;4593;53.652;10.168;2023-03-24T01:56:19;7.23;;;3.30;;
9115;SDS011;4593;53.652;10.168;2023-03-24T01:58:50;3.53;;;3.00;;
9115;SDS011;4593;53.652;10.168;2023-03-24T02:01:35;4.77;;;2.97;;
9115;SDS011;4593;53.652;10.168;2023-03-24T02:04:02;3.70;;;3.20;;
9115;SDS011;4593;53.652;10.168;2023-03-24T02:06:31;4.20;;;3.20;;
9115;SDS011;4593;53.652;10.168;2023-03-24T02:08:59;6.67;;;2.90;;
9115;SDS011;4593;53.652;10.168;2023-03-24T02:11:27;4.37;;;2.90;;
9115;SDS011;4593;53.652;10.168;2023-03-24T02:13:55;7.20;;;3.37;;
9115;SDS011;4593;53.652;10.168;2023-03-24T02:52:45;9.53;;;3.20;;
9115;SDS011;4593;53.652;10.168;2023-03-24T02:55:19;5.20;;;3.03;;
9115;SDS011;4593;53.652;10.168;2023-03-24T02:58:12;4.33;;;2.90;;
9115;SDS011;4593;53.652;10.168;2023-03-24T03:00:44;7.63;;;3.30;;
9115;SDS011;4593;53.652;10.168;2023-03-24T03:06:00;14.27;;;3.40;;
9115;SDS011;4593;53.652;10.168;2023-03-24T03:08:31;4.40;;;2.70;;
9115;SDS011;4593;53.652;10.168;2023-03-24T03:10:59;4.27;;;3.10;;
9115;SDS011;4593;53.652;10.168;2023-03-24T03:13:38;6.37;;;2.90;;
9115;SDS011;4593;53.652;10.168;2023-03-24T03:16:12;14.17;;;3.43;;
9115;SDS011;4593;53.652;10.168;2023-03-24T03:18:50;4.57;;;3.20;;
9115;SDS011;4593;53.652;10.168;2023-03-24T03:21:22;4.93;;;2.60;;
9115;SDS011;4593;53.652;10.168;2023-03-24T03:23:51;3.73;;;2.97;;
9115;SDS011;4593;53.652;10.168;2023-03-24T03:26:21;3.10;;;2.80;;
9115;SDS011;4593;53.652;10.168;2023-03-24T03:28:54;7.07;;;3.23;;
9115;SDS011;4593;53.652;10.168;2023-03-24T03:31:26;3.40;;;3.10;;
9115;SDS011;4593;53.652;10.168;2023-03-24T03:33:59;6.67;;;3.07;;
9115;SDS011;4593;53.652;10.168;2023-03-24T03:36:33;4.50;;;2.87;;
9115;SDS011;4593;53.652;10.168;2023-03-24T03:39:28;3.53;;;3.07;;
9115;SDS011;4593;53.652;10.168;2023-03-24T03:41:57;5.33;;;2.87;;
9115;SDS011;4593;53.652;10.168;2023-03-24T03:44:23;4.13;;;3.40;;
9115;SDS011;4593;53.652;10.168;2023-03-24T03:46:50;5.67;;;3.60;;
9115;SDS011;4593;53.652;10.168;2023-03-24T03:49:16;3.97;;;2.93;;
9115;SDS011;4593;53.652;10.168;2023-03-24T03:51:42;4.27;;;3.03;;
9115;SDS011;4593;53.652;10.168;2023-03-24T03:54:09;4.13;;;3.20;;
9115;SDS011;4593;53.652;10.168;2023-03-24T03:56:36;3.67;;;3.00;;
9115;SDS011;4593;53.652;10.168;2023-03-24T03:59:03;5.23;;;3.20;;
9115;SDS011;4593;53.652;10.168;2023-03-24T04:01:32;6.30;;;3.27;;
9115;SDS011;4593;53.652;10.168;2023-03-24T04:12:07;3.50;;;3.20;;
9115;SDS011;4593;53.652;10.168;2023-03-24T04:15:02;6.83;;;3.03;;
9115;SDS011;4593;53.652;10.168;2023-03-24T04:26:14;3.50;;;3.10;;
9115;SDS011;4593;53.652;10.168;2023-03-24T04:31:59;3.80;;;3.37;;
9115;SDS011;4593;53.652;10.168;2023-03-24T04:34:39;3.70;;;3.30;;
9115;SDS011;4593;53.652;10.168;2023-03-24T04:37:11;6.33;;;3.60;;
9115;SDS011;4593;53.652;10.168;2023-03-24T04:39:42;4.03;;;3.33;;
9115;SDS011;4593;53.652;10.168;2023-03-24T04:42:25;4.03;;;3.30;;
9115;SDS011;4593;53.652;10.168;2023-03-24T04:44:56;4.93;;;3.73;;
9115;SDS011;4593;53.652;10.168;2023-03-24T04:47:24;4.63;;;3.87;;
9115;SDS011;4593;53.652;10.168;2023-03-24T04:50:03;7.10;;;3.40;;
9115;SDS011;4593;53.652;10.168;2023-03-24T04:52:31;4.23;;;3.27;;
9115;SDS011;4593;53.652;10.168;2023-03-24T04:54:57;5.50;;;3.67;;
9115;SDS011;4593;53.652;10.168;2023-03-24T04:57:23;3.53;;;3.23;;
9115;SDS011;4593;53.652;10.168;2023-03-24T04:59:49;4.80;;;3.93;;
9115;SDS011;4593;53.652;10.168;2023-03-24T05:02:15;7.77;;;3.43;;
9115;SDS011;4593;53.652;10.168;2023-03-24T05:04:40;8.13;;;3.50;;
9115;SDS011;4593;53.652;10.168;2023-03-24T05:07:06;3.93;;;3.37;;
9115;SDS011;4593;53.652;10.168;2023-03-24T05:09:31;3.50;;;3.13;;
9115;SDS011;4593;53.652;10.168;2023-03-24T05:11:57;3.47;;;3.07;;
9115;SDS011;4593;53.652;10.168;2023-03-24T05:14:23;6.60;;;3.30;;
9115;SDS011;4593;53.652;10.168;2023-03-24T05:16:49;4.67;;;3.73;;
9115;SDS011;4593;53.652;10.168;2023-03-24T05:19:15;5.70;;;3.03;;
9115;SDS011;4593;53.652;10.168;2023-03-24T05:21:40;4.63;;;3.37;;
9115;SDS011;4593;53.652;10.168;2023-03-24T05:24:06;5.10;;;3.30;;
9115;SDS011;4593;53.652;10.168;2023-03-24T05:26:33;6.33;;;3.37;;
9115;SDS011;4593;53.652;10.168;2023-03-24T05:28:59;3.80;;;3.40;;
9115;SDS011;4593;53.652;10.168;2023-03-24T05:31:25;5.17;;;3.80;;
9115;SDS011;4593;53.652;10.168;2023-03-24T05:33:50;3.87;;;3.27;;
9115;SDS011;4593;53.652;10.168;2023-03-24T05:36:16;3.73;;;3.40;;
9115;SDS011;4593;53.652;10.168;2023-03-24T05:38:42;7.60;;;3.27;;
9115;SDS011;4593;53.652;10.168;2023-03-24T05:41:07;4.60;;;3.70;;
9115;SDS011;4593;53.652;10.168;2023-03-24T05:43:33;3.57;;;3.20;;
9115;SDS011;4593;53.652;10.168;2023-03-24T05:45:59;4.87;;;4.03;;
9115;SDS011;4593;53.652;10.168;2023-03-24T05:48:25;4.00;;;3.30;;
9115;SDS011;4593;53.652;10.168;2023-03-24T05:50:51;3.70;;;3.40;;
9115;SDS011;4593;53.652;10.168;2023-03-24T05:53:17;5.10;;;3.77;;
9115;SDS011;4593;53.652;10.168;2023-03-24T05:55:44;5.57;;;3.60;;
9115;SDS011;4593;53.652;10.168;2023-03-24T05:58:10;3.53;;;3.23;;
9115;SDS011;4593;53.652;10.168;2023-03-24T06:00:36;3.83;;;3.53;;
9115;SDS011;4593;53.652;10.168;2023-03-24T06:03:02;9.27;;;4.37;;
9115;SDS011;4593;53.652;10.168;2023-03-24T06:05:29;4.60;;;3.70;;
9115;SDS011;4593;53.652;10.168;2023-03-24T06:07:55;4.50;;;3.60;;
9115;SDS011;4593;53.652;10.168;2023-03-24T06:10:23;3.57;;;3.27;;
9115;SDS011;4593;53.652;10.168;2023-03-24T06:12:53;3.60;;;3.30;;
9115;SDS011;4593;53.652;10.168;2023-03-24T06:15:20;6.93;;;4.00;;
9115;SDS011;4593;53.652;10.168;2023-03-24T06:17:48;5.13;;;3.70;;
9115;SDS011;4593;53.652;10.168;2023-03-24T06:20:14;4.67;;;3.07;;
9115;SDS011;4593;53.652;10.168;2023-03-24T06:22:42;6.03;;;3.60;;
9115;SDS011;4593;53.652;10.168;2023-03-24T06:25:10;3.60;;;3.30;;
9115;SDS011;4593;53.652;10.168;2023-03-24T06:27:36;3.63;;;3.23;;
9115;SDS011;4593;53.652;10.168;2023-03-24T06:30:02;7.80;;;3.43;;
9115;SDS011;4593;53.652;10.168;2023-03-24T06:32:29;4.03;;;3.43;;
9115;SDS011;4593;53.652;10.168;2023-03-24T06:34:54;3.33;;;3.13;;
9115;SDS011;4593;53.652;10.168;2023-03-24T06:37:20;3.80;;;3.43;;
9115;SDS011;4593;53.652;10.168;2023-03-24T06:39:46;4.60;;;4.00;;
9115;SDS011;4593;53.652;10.168;2023-03-24T06:42:12;3.70;;;3.40;;
9115;SDS011;4593;53.652;10.168;2023-03-24T06:44:38;3.80;;;3.47;;
9115;SDS011;4593;53.652;10.168;2023-03-24T06:47:04;3.97;;;3.30;;
9115;SDS011;4593;53.652;10.168;2023-03-24T06:49:30;4.83;;;3.53;;
9115;SDS011;4593;53.652;10.168;2023-03-24T06:51:58;4.83;;;3.87;;
9115;SDS011;4593;53.652;10.168;2023-03-24T06:54:25;6.07;;;4.07;;
9115;SDS011;4593;53.652;10.168;2023-03-24T06:56:51;4.53;;;3.20;;
9115;SDS011;4593;53.652;10.168;2023-03-24T06:59:17;3.97;;;3.57;;
9115;SDS011;4593;53.652;10.168;2023-03-24T07:01:47;3.70;;;3.40;;
9115;SDS011;4593;53.652;10.168;2023-03-24T07:04:14;8.10;;;3.50;;
9115;SDS011;4593;53.652;10.168;2023-03-24T07:06:40;4.67;;;3.70;;
9115;SDS011;4593;53.652;10.168;2023-03-24T07:09:06;4.00;;;3.60;;
9115;SDS011;4593;53.652;10.168;2023-03-24T07:11:32;4.43;;;3.40;;
9115;SDS011;4593;53.652;10.168;2023-03-24T07:13:58;3.53;;;3.23;;
9115;SDS011;4593;53.652;10.168;2023-03-24T07:16:23;4.20;;;3.30;;
9115;SDS011;4593;53.652;10.168;2023-03-24T07:18:49;3.07;;;2.77;;
9115;SDS011;4593;53.652;10.168;2023-03-24T07:21:14;3.77;;;3.33;;
9115;SDS011;4593;53.652;10.168;2023-03-24T07:23:40;3.33;;;3.03;;
9115;SDS011;4593;53.652;10.168;2023-03-24T07:26:06;3.30;;;3.00;;
9115;SDS011;4593;53.652;10.168;2023-03-24T07:28:31;3.53;;;3.23;;
9115;SDS011;4593;53.652;10.168;2023-03-24T07:31:00;4.37;;;2.87;;
9115;SDS011;4593;53.652;10.168;2023-03-24T07:33:27;5.20;;;2.70;;
9115;SDS011;4593;53.652;10.168;2023-03-24T07:35:54;3.27;;;2.97;;
9115;SDS011;4593;53.652;10.168;2023-03-24T07:38:21;2.70;;;2.50;;
9115;SDS011;4593;53.652;10.168;2023-03-24T07:40:47;2.90;;;2.70;;
9115;SDS011;4593;53.652;10.168;2023-03-24T07:43:13;2.77;;;2.40;;
9115;SDS011;4593;53.652;10.168;2023-03-24T07:45:39;3.17;;;2.57;;
9115;SDS011;4593;53.652;10.168;2023-03-24T07:48:05;3.43;;;2.80;;
9115;SDS011;4593;53.652;10.168;2023-03-24T07:50:31;2.73;;;2.20;;
9115;SDS011;4593;53.652;10.168;2023-03-24T07:52:57;2.97;;;2.23;;
9115;SDS011;4593;53.652;10.168;2023-03-24T07:55:23;4.57;;;2.70;;
9115;SDS011;4593;53.652;10.168;2023-03-24T07:57:49;2.63;;;2.20;;
9115;SDS011;4593;53.652;10.168;2023-03-24T08:00:15;2.40;;;2.20;;
9115;SDS011;4593;53.652;10.168;2023-03-24T08:02:44;5.93;;;2.30;;
9115;SDS011;4593;53.652;10.168;2023-03-24T08:05:14;12.67;;;2.60;;
9115;SDS011;4593;53.652;10.168;2023-03-24T08:07:41;2.43;;;2.13;;
9115;SDS011;4593;53.652;10.168;2023-03-24T08:10:09;2.83;;;1.93;;
9115;SDS011;4593;53.652;10.168;2023-03-24T08:12:39;2.60;;;2.00;;
9115;SDS011;4593;53.652;10.168;2023-03-24T08:15:05;5.20;;;2.10;;
9115;SDS011;4593;53.652;10.168;2023-03-24T08:17:32;4.30;;;2.30;;
9115;SDS011;4593;53.652;10.168;2023-03-24T08:19:58;6.20;;;2.30;;
9115;SDS011;4593;53.652;10.168;2023-03-24T08:22:23;5.13;;;2.90;;
9115;SDS011;4593;53.652;10.168;2023-03-24T08:24:49;3.80;;;3.23;;
9115;SDS011;4593;53.652;10.168;2023-03-24T08:27:15;3.73;;;2.37;;
9115;SDS011;4593;53.652;10.168;2023-03-24T08:29:41;3.63;;;1.97;;
9115;SDS011;4593;53.652;10.168;2023-03-24T08:32:07;3.70;;;1.80;;
9115;SDS011;4593;53.652;10.168;2023-03-24T08:34:33;5.57;;;2.10;;
9115;SDS011;4593;53.652;10.168;2023-03-24T08:36:58;5.87;;;2.30;;
9115;SDS011;4593;53.652;10.168;2023-03-24T08:39:25;2.57;;;2.07;;
9115;SDS011;4593;53.652;10.168;2023-03-24T08:41:50;3.53;;;2.17;;
9115;SDS011;4593;53.652;10.168;2023-03-24T08:44:18;2.30;;;1.80;;
9115;SDS011;4593;53.652;10.168;2023-03-24T08:46:44;4.23;;;2.07;;
9115;SDS011;4593;53.652;10.168;2023-03-24T08:49:10;2.43;;;1.80;;
9115;SDS011;4593;53.652;10.168;2023-03-24T08:51:36;4.23;;;2.33;;
9115;SDS011;4593;53.652;10.168;2023-03-24T08:54:02;5.23;;;1.90;;
9115;SDS011;4593;53.652;10.168;2023-03-24T08:56:28;6.40;;;1.97;;
9115;SDS011;4593;53.652;10.168;2023-03-24T08:58:54;5.10;;;2.17;;
9115;SDS011;4593;53.652;10.168;2023-03-24T09:01:21;6.20;;;2.20;;
9115;SDS011;4593;53.652;10.168;2023-03-24T09:03:47;1.83;;;1.73;;
9115;SDS011;4593;53.652;10.168;2023-03-24T09:06:13;2.10;;;1.90;;
9115;SDS011;4593;53.652;10.168;2023-03-24T09:08:39;4.47;;;2.23;;
9115;SDS011;4593;53.652;10.168;2023-03-24T09:11:06;2.67;;;1.83;;
9115;SDS011;4593;53.652;10.168;2023-03-24T09:13:37;2.03;;;1.80;;
9115;SDS011;4593;53.652;10.168;2023-03-24T09:16:03;5.40;;;2.27;;
9115;SDS011;4593;53.652;10.168;2023-03-24T09:18:29;2.47;;;1.97;;
9115;SDS011;4593;53.652;10.168;2023-03-24T09:20:54;2.53;;;2.10;;
9115;SDS011;4593;53.652;10.168;2023-03-24T09:23:20;4.07;;;2.23;;
9115;SDS011;4593;53.652;10.168;2023-03-24T09:25:50;4.20;;;2.17;;
9115;SDS011;4593;53.652;10.168;2023-03-24T09:28:17;5.03;;;2.13;;
9115;SDS011;4593;53.652;10.168;2023-03-24T09:30:43;1.83;;;1.70;;
9115;SDS011;4593;53.652;10.168;2023-03-24T09:33:09;2.30;;;2.03;;
9115;SDS011;4593;53.652;10.168;2023-03-24T09:35:35;4.03;;;2.20;;
9115;SDS011;4593;53.652;10.168;2023-03-24T09:38:01;4.37;;;2.50;;
9115;SDS011;4593;53.652;10.168;2023-03-24T09:40:27;3.00;;;1.77;;
9115;SDS011;4593;53.652;10.168;2023-03-24T09:45:27;3.80;;;2.00;;
9115;SDS011;4593;53.652;10.168;2023-03-24T09:48:07;5.73;;;2.20;;
9115;SDS011;4593;53.652;10.168;2023-03-24T09:51:27;5.63;;;2.20;;
9115;SDS011;4593;53.652;10.168;2023-03-24T09:56:24;2.87;;;1.73;;
9115;SDS011;4593;53.652;10.168;2023-03-24T09:58:58;7.90;;;2.10;;
9115;SDS011;4593;53.652;10.168;2023-03-24T10:01:44;8.07;;;2.00;;
9115;SDS011;4593;53.652;10.168;2023-03-24T10:04:15;4.63;;;2.07;;
9115;SDS011;4593;53.652;10.168;2023-03-24T10:06:43;4.67;;;2.00;;
9115;SDS011;4593;53.652;10.168;2023-03-24T10:14:43;5.00;;;2.30;;
9115;SDS011;4593;53.652;10.168;2023-03-24T10:20:32;6.63;;;2.33;;
9115;SDS011;4593;53.652;10.168;2023-03-24T10:28:40;8.50;;;2.30;;
9115;SDS011;4593;53.652;10.168;2023-03-24T10:31:12;5.07;;;2.10;;
9115;SDS011;4593;53.652;10.168;2023-03-24T10:33:43;5.53;;;1.90;;
9115;SDS011;4593;53.652;10.168;2023-03-24T10:36:13;2.03;;;1.83;;
9115;SDS011;4593;53.652;10.168;2023-03-24T10:38:42;5.00;;;2.20;;
9115;SDS011;4593;53.652;10.168;2023-03-24T10:41:15;3.77;;;1.80;;
9115;SDS011;4593;53.652;10.168;2023-03-24T10:43:44;4.13;;;2.20;;
9115;SDS011;4593;53.652;10.168;2023-03-24T10:46:13;4.17;;;2.27;;
9115;SDS011;4593;53.652;10.168;2023-03-24T10:48:45;4.83;;;2.00;;
9115;SDS011;4593;53.652;10.168;2023-03-24T10:51:18;7.43;;;2.17;;
9115;SDS011;4593;53.652;10.168;2023-03-24T10:53:51;3.90;;;1.70;;
9115;SDS011;4593;53.652;10.168;2023-03-24T10:56:43;10.47;;;2.40;;
9115;SDS011;4593;53.652;10.168;2023-03-24T10:59:18;8.23;;;2.27;;
9115;SDS011;4593;53.652;10.168;2023-03-24T11:04:33;4.97;;;2.00;;
9115;SDS011;4593;53.652;10.168;2023-03-24T11:07:04;5.23;;;2.30;;
9115;SDS011;4593;53.652;10.168;2023-03-24T11:09:38;4.80;;;1.87;;
9115;SDS011;4593;53.652;10.168;2023-03-24T11:12:19;4.50;;;2.03;;
9115;SDS011;4593;53.652;10.168;2023-03-24T11:14:47;4.93;;;2.07;;
9115;SDS011;4593;53.652;10.168;2023-03-24T11:17:13;7.20;;;2.13;;
9115;SDS011;4593;53.652;10.168;2023-03-24T11:19:49;6.33;;;2.27;;
9115;SDS011;4593;53.652;10.168;2023-03-24T11:22:16;3.97;;;2.17;;
9115;SDS011;4593;53.652;10.168;2023-03-24T11:24:42;8.07;;;2.40;;
9115;SDS011;4593;53.652;10.168;2023-03-24T11:27:12;4.70;;;2.07;;
9115;SDS011;4593;53.652;10.168;2023-03-24T11:29:40;4.90;;;1.80;;
9115;SDS011;4593;53.652;10.168;2023-03-24T11:32:11;2.80;;;2.07;;
9115;SDS011;4593;53.652;10.168;2023-03-24T11:34:43;6.07;;;2.07;;
9115;SDS011;4593;53.652;10.168;2023-03-24T11:37:13;6.27;;;2.37;;
9115;SDS011;4593;53.652;10.168;2023-03-24T11:39:43;6.20;;;2.53;;
9115;SDS011;4593;53.652;10.168;2023-03-24T11:42:29;2.27;;;1.90;;
9115;SDS011;4593;53.652;10.168;2023-03-24T11:44:54;3.43;;;1.90;;
9115;SDS011;4593;53.652;10.168;2023-03-24T11:47:34;5.33;;;2.10;;
9115;SDS011;4593;53.652;10.168;2023-03-24T11:52:53;4.80;;;2.00;;
9115;SDS011;4593;53.652;10.168;2023-03-24T11:58:19;4.97;;;2.07;;
9115;SDS011;4593;53.652;10.168;2023-03-24T12:01:02;4.93;;;1.90;;
9115;SDS011;4593;53.652;10.168;2023-03-24T12:03:54;3.43;;;2.10;;
9115;SDS011;4593;53.652;10.168;2023-03-24T12:09:16;3.97;;;1.80;;
9115;SDS011;4593;53.652;10.168;2023-03-24T12:11:53;9.23;;;2.03;;
9115;SDS011;4593;53.652;10.168;2023-03-24T12:14:30;5.77;;;2.00;;
9115;SDS011;4593;53.652;10.168;2023-03-24T12:17:10;4.53;;;1.83;;
9115;SDS011;4593;53.652;10.168;2023-03-24T12:19:56;3.93;;;1.93;;
9115;SDS011;4593;53.652;10.168;2023-03-24T12:22:49;3.83;;;1.77;;
9115;SDS011;4593;53.652;10.168;2023-03-24T12:25:38;5.53;;;1.90;;
9115;SDS011;4593;53.652;10.168;2023-03-24T12:42:41;6.83;;;2.20;;
9115;SDS011;4593;53.652;10.168;2023-03-24T12:48:08;7.40;;;2.03;;
9115;SDS011;4593;53.652;10.168;2023-03-24T12:50:40;5.87;;;2.17;;
9115;SDS011;4593;53.652;10.168;2023-03-24T12:55:49;5.57;;;1.93;;
9115;SDS011;4593;53.652;10.168;2023-03-24T12:58:38;3.57;;;1.90;;
9115;SDS011;4593;53.652;10.168;2023-03-24T13:04:06;4.20;;;2.20;;
9115;SDS011;4593;53.652;10.168;2023-03-24T13:06:38;6.23;;;2.00;;
9115;SDS011;4593;53.652;10.168;2023-03-24T13:09:24;8.40;;;2.20;;
9115;SDS011;4593;53.652;10.168;2023-03-24T13:25:52;6.87;;;2.10;;
9115;SDS011;4593;53.652;10.168;2023-03-24T13:28:41;7.00;;;2.03;;
9115;SDS011;4593;53.652;10.168;2023-03-24T13:31:34;3.53;;;1.80;;
9115;SDS011;4593;53.652;10.168;2023-03-24T13:34:32;3.47;;;2.20;;
9115;SDS011;4593;53.652;10.168;2023-03-24T13:37:14;5.60;;;2.50;;
9115;SDS011;4593;53.652;10.168;2023-03-24T13:39:46;5.20;;;2.30;;
9115;SDS011;4593;53.652;10.168;2023-03-24T13:42:26;5.50;;;2.20;;
9115;SDS011;4593;53.652;10.168;2023-03-24T13:44:53;5.43;;;1.80;;
9115;SDS011;4593;53.652;10.168;2023-03-24T13:47:19;7.23;;;2.17;;
9115;SDS011;4593;53.652;10.168;2023-03-24T13:49:51;5.37;;;2.13;;
9115;SDS011;4593;53.652;10.168;2023-03-24T13:52:34;4.50;;;2.13;;
9115;SDS011;4593;53.652;10.168;2023-03-24T13:55:08;4.60;;;2.30;;
9115;SDS011;4593;53.652;10.168;2023-03-24T13:57:41;3.97;;;2.20;;
9115;SDS011;4593;53.652;10.168;2023-03-24T14:00:21;6.10;;;1.93;;
9115;SDS011;4593;53.652;10.168;2023-03-24T14:02:53;5.70;;;2.00;;
9115;SDS011;4593;53.652;10.168;2023-03-24T14:08:32;4.20;;;1.90;;
9115;SDS011;4593;53.652;10.168;2023-03-24T14:19:18;9.17;;;2.10;;
9115;SDS011;4593;53.652;10.168;2023-03-24T14:21:56;6.73;;;2.03;;
9115;SDS011;4593;53.652;10.168;2023-03-24T14:24:41;3.43;;;2.30;;
9115;SDS011;4593;53.652;10.168;2023-03-24T14:27:19;8.03;;;2.20;;
9115;SDS011;4593;53.652;10.168;2023-03-24T14:29:50;4.83;;;1.97;;
9115;SDS011;4593;53.652;10.168;2023-03-24T14:32:17;5.07;;;1.80;;
9115;SDS011;4593;53.652;10.168;2023-03-24T14:34:56;5.80;;;2.20;;
9115;SDS011;4593;53.652;10.168;2023-03-24T14:37:25;2.30;;;1.70;;
9115;SDS011;4593;53.652;10.168;2023-03-24T14:39:52;4.37;;;1.80;;
9115;SDS011;4593;53.652;10.168;2023-03-24T14:42:40;3.33;;;1.90;;
9115;SDS011;4593;53.652;10.168;2023-03-24T14:47:58;3.53;;;1.70;;
9115;SDS011;4593;53.652;10.168;2023-03-24T14:50:26;9.23;;;2.27;;
9115;SDS011;4593;53.652;10.168;2023-03-24T14:52:59;2.10;;;1.90;;
9115;SDS011;4593;53.652;10.168;2023-03-24T14:55:27;3.10;;;1.60;;
9115;SDS011;4593;53.652;10.168;2023-03-24T14:58:09;7.63;;;1.80;;
9115;SDS011;4593;53.652;10.168;2023-03-24T15:00:51;3.27;;;1.80;;
9115;SDS011;4593;53.652;10.168;2023-03-24T15:06:18;2.90;;;1.90;;
9115;SDS011;4593;53.652;10.168;2023-03-24T15:08:49;2.30;;;1.70;;
9115;SDS011;4593;53.652;10.168;2023-03-24T15:11:16;3.47;;;2.23;;
9115;SDS011;4593;53.652;10.168;2023-03-24T15:13:49;9.00;;;2.20;;
9115;SDS011;4593;53.652;10.168;2023-03-24T15:16:49;2.77;;;1.73;;
9115;SDS011;4593;53.652;10.168;2023-03-24T15:19:25;3.13;;;2.10;;
9115;SDS011;4593;53.652;10.168;2023-03-24T15:26:54;6.63;;;1.93;;
9115;SDS011;4593;53.652;10.168;2023-03-24T15:29:58;4.20;;;2.07;;
9115;SDS011;4593;53.652;10.168;2023-03-24T15:32:25;8.87;;;2.13;;
9115;SDS011;4593;53.652;10.168;2023-03-24T15:34:56;7.60;;;2.10;;
9115;SDS011;4593;53.652;10.168;2023-03-24T15:37:47;6.00;;;2.23;;
9115;SDS011;4593;53.652;10.168;2023-03-24T15:42:56;2.93;;;1.87;;
9115;SDS011;4593;53.652;10.168;2023-03-24T15:48:03;4.70;;;2.40;;
9115;SDS011;4593;53.652;10.168;2023-03-24T15:50:36;6.40;;;1.90;;
9115;SDS011;4593;53.652;10.168;2023-03-24T15:55:38;2.47;;;1.87;;
9115;SDS011;4593;53.652;10.168;2023-03-24T15:58:22;5.13;;;2.13;;
9115;SDS011;4593;53.652;10.168;2023-03-24T16:00:52;4.73;;;1.77;;
9115;SDS011;4593;53.652;10.168;2023-03-24T16:03:21;6.00;;;2.00;;
9115;SDS011;4593;53.652;10.168;2023-03-24T16:05:51;6.33;;;2.03;;
9115;SDS011;4593;53.652;10.168;2023-03-24T16:08:28;2.90;;;2.17;;
9115;SDS011;4593;53.652;10.168;2023-03-24T16:11:03;6.43;;;2.10;;
9115;SDS011;4593;53.652;10.168;2023-03-24T16:13:32;2.20;;;1.93;;
9115;SDS011;4593;53.652;10.168;2023-03-24T16:16:18;3.07;;;1.90;;
9115;SDS011;4593;53.652;10.168;2023-03-24T16:18:53;6.50;;;1.90;;
9115;SDS011;4593;53.652;10.168;2023-03-24T16:21:26;4.17;;;1.90;;
9115;SDS011;4593;53.652;10.168;2023-03-24T16:23:54;1.80;;;1.70;;
9115;SDS011;4593;53.652;10.168;2023-03-24T16:28:48;3.47;;;1.70;;
9115;SDS011;4593;53.652;10.168;2023-03-24T16:33:49;2.47;;;1.90;;
9115;SDS011;4593;53.652;10.168;2023-03-24T16:36:15;4.90;;;2.00;;
9115;SDS011;4593;53.652;10.168;2023-03-24T16:38:42;4.10;;;1.90;;
9115;SDS011;4593;53.652;10.168;2023-03-24T16:41:09;1.97;;;1.83;;
9115;SDS011;4593;53.652;10.168;2023-03-24T16:43:37;5.47;;;1.90;;
9115;SDS011;4593;53.652;10.168;2023-03-24T16:46:04;5.53;;;2.10;;
9115;SDS011;4593;53.652;10.168;2023-03-24T16:48:31;5.13;;;1.77;;
9115;SDS011;4593;53.652;10.168;2023-03-24T16:50:56;4.67;;;1.80;;
9115;SDS011;4593;53.652;10.168;2023-03-24T16:53:22;5.77;;;2.27;;
9115;SDS011;4593;53.652;10.168;2023-03-24T16:55:48;4.63;;;2.00;;
9115;SDS011;4593;53.652;10.168;2023-03-24T16:58:14;4.87;;;2.20;;
9115;SDS011;4593;53.652;10.168;2023-03-24T17:00:41;4.77;;;1.93;;
9115;SDS011;4593;53.652;10.168;2023-03-24T17:03:08;5.83;;;2.90;;
9115;SDS011;4593;53.652;10.168;2023-03-24T17:05:40;5.07;;;2.07;;
9115;SDS011;4593;53.652;10.168;2023-03-24T17:08:12;5.87;;;2.60;;
9115;SDS011;4593;53.652;10.168;2023-03-24T17:10:39;3.20;;;2.07;;
9115;SDS011;4593;53.652;10.168;2023-03-24T17:13:06;6.57;;;2.27;;
9115;SDS011;4593;53.652;10.168;2023-03-24T17:15:32;2.80;;;2.10;;
9115;SDS011;4593;53.652;10.168;2023-03-24T17:17:57;3.80;;;2.10;;
9115;SDS011;4593;53.652;10.168;2023-03-24T17:20:24;4.43;;;2.27;;
9115;SDS011;4593;53.652;10.168;2023-03-24T17:22:52;5.50;;;2.43;;
9115;SDS011;4593;53.652;10.168;2023-03-24T17:25:19;4.20;;;2.50;;
9115;SDS011;4593;53.652;10.168;2023-03-24T17:27:53;8.93;;;2.33;;
9115;SDS011;4593;53.652;10.168;2023-03-24T17:30:20;5.73;;;2.33;;
9115;SDS011;4593;53.652;10.168;2023-03-24T17:32:47;5.10;;;2.37;;
9115;SDS011;4593;53.652;10.168;2023-03-24T17:35:13;4.70;;;2.33;;
9115;SDS011;4593;53.652;10.168;2023-03-24T17:37:41;9.60;;;2.40;;
9115;SDS011;4593;53.652;10.168;2023-03-24T17:40:08;5.77;;;2.43;;
9115;SDS011;4593;53.652;10.168;2023-03-24T17:42:36;2.97;;;2.10;;
9115;SDS011;4593;53.652;10.168;2023-03-24T17:45:03;7.53;;;2.43;;
9115;SDS011;4593;53.652;10.168;2023-03-24T17:47:29;4.57;;;2.73;;
9115;SDS011;4593;53.652;10.168;2023-03-24T17:49:55;9.03;;;2.70;;
9115;SDS011;4593;53.652;10.168;2023-03-24T17:52:22;6.17;;;2.97;;
9115;SDS011;4593;53.652;10.168;2023-03-24T17:54:48;2.97;;;2.67;;
9115;SDS011;4593;53.652;10.168;2023-03-24T17:57:13;2.60;;;2.33;;
9115;SDS011;4593;53.652;10.168;2023-03-24T17:59:39;4.00;;;2.70;;
9115;SDS011;4593;53.652;10.168;2023-03-24T18:02:05;5.50;;;2.40;;
9115;SDS011;4593;53.652;10.168;2023-03-24T18:04:32;4.37;;;2.27;;